Buritis, Brazil
Current Conditions -  °F | °C
As of 11:00 PM on Friday 24 Oct 2014 (Local Time) from SBBR Reporting Station
Broken Clouds Broken Clouds  
Wind Chill: 79°   Ceiling: 10000
Heat Index: 80°   Visibility: 6mi
Dew Point: 61°   Wind: 5mph
Humidity: 54%   Direction: 220°SW
Pressure: 30.03"   Gusts: NA
Location:  15.62°S, 46.42°W
Report Text: SBBR 250100Z 22004KT 9999 FEW040 BKN100 26/16 Q1017
Loading
Personal Weather Stations






























Interactive Weather Map
Tropical Storm Tracking
New forecast layout! Learn more

10-Day Weather Forecast

Advertisements
Track Severe Weather on mobile